Warning: Javascript must be enabled to use all the features on this page!


Page Loading - Please Wait...

Click to hideNews Bulletins

Peak Streamflow for the Nation

USGS 08110500 Navasota Rv nr Easterly, TX

Leon County, Texas
Hydrologic Unit Code 12070103
Latitude  31°10'12", Longitude  96°17'51" NAD27
Drainage area 968  square miles
Contributing drainage area 968  square miles
Gage datum 271.46 feet above NGVD29
Output formats
Table
Graph
Tab-separated file
peakfq (watstore) format
Reselect output format
Water
Year
Date Gage
Height
(feet)
Stream-
flow
(cfs)
1899 1899 29.003,5,Bm 90,0007,Bm
1925 1925-09-16   2,540
1926 1925-11-07   17,600
1927 1927-01-22   15,200
1928 1927-10-04   16,800
1929 1929-05-30   49,400
1930 1930-05-12   30,100
1931 1931-01-21 10.403 6,200
1932 1932-09-05 21.903 58,100
1933 1933-04-01 15.353 5,110
1934 1934-04-07 17.403 16,600
1935 1935-04-27 17.593 18,000
1936 1935-12-07 20.293 37,200
1937 1937-03-07 15.883 7,290
1938 1938-01-25 16.853 13,100
1939 1939-05-20 12.423 1,620
1940 1940-07-01 12.833 1,880
1941 1940-11-24 19.583 34,300
1942 1942-05-19 17.533 18,800
1943 1942-12-30 15.243 4,900
1944 1944-05-02 22.133 60,300
1945 1945-03-05 17.303 15,600
1946 1946-05-14 18.293 23,200
1947 1947-05-20 16.203 8,800
1948 1948-05-14 14.843 4,010
1949 1949-03-22 15.453 5,350
1950 1950-02-13 17.783 19,000
1951 1951-09-17 7.853 710
1952 1952-05-27 15.823 6,800
1953 1953-05-17 18.573 25,700
1954 1953-12-03 16.093 8,300
1955 1955-04-10 12.703 1,930
1956 1956-05-04 15.273 4,080
1957 1957-04-25 19.873 37,700
1958 1957-10-16 18.343 24,800
1959 1959-06-25 17.443 12,600
1960 1959-12-18 16.553 9,100
1961 1960-12-09 19.543 33,0006
1962 1962-05-01 15.053 3,7806
1963 1963-02-19 6.173 3566
1964 1964-04-28 7.743 7406
1965 1965-05-17 20.583 43,2006
1966 1966-04-26 20.303 39,6006
1967 1967-05-05 10.083 1,4106
1968 1968-05-12 18.323 20,1006
1969 1969-04-14 17.063 12,2006
1970 1969-12-08 16.633 9,8606
1971 1970-10-26 11.583 1,6106
1972 1971-12-12 17.383 15,0006
1973 1973-04-26 18.143 17,7006
1974 1973-10-15 17.083 11,1006
1975 1974-11-02 18.673 24,9006
1976 1976-06-02 17.313 14,2006
1977 1976-12-12 18.513 23,5006
1978 1978-03-10 15.963 6,5906
1979 1979-05-30 24.206 29,9006
1980 1980-05-15 22.00 11,9006
1981 1981-06-16 22.15 12,9006
1982 1981-10-15 22.25 13,6006
1983 1983-05-22 21.90 11,2006
1984 1984-03-15 15.91 1,5806
1985 1985-02-25 22.44 15,0006
1986 1986-02-05 24.44 32,3006
1987 1986-12-25 20.93 6,4706
1988 1988-03-05 14.06 1,1206
1989 1989-05-18 25.71 45,6006
1990 1990-03-16 23.72 25,2006
1991 1991-01-11 23.78 23,8006
1992 1991-12-22 27.22 61,8006
1993 1993-03-23 21.85 10,6006
1994 1994-02-24 22.04 11,8006
1995 1995-01-14 22.63 16,4006
1996 1996-08-30 6.38 1746
1997 1997-04-06 23.52 23,3006
1998 1998-01-08 24.60 28,5006
1999 1999-01-30 25.17 37,7006
2000 2000-06-15 19.71 4,0206
2001 2000-12-28 23.96 22,8006
2002 2001-12-18 24.74 28,1006
2003 2003-02-22 24.23 23,7006
2004 2004-06-30 22.63 12,7006
2005 2004-11-24 23.15 15,6006
2006 2006-04-01 17.11 2,1406
2007 2007-07-15 25.08 28,4006
2008 2008-08-20 21.77 8,8006
2009 2009-04-29 28.25 60,4006
2010 2009-10-28 22.95 12,8006
2011 2011-05-22 8.61 3306
2012 2012-03-21 25.16 30,0006
2013 2013-01-10 12.63 8806
2014 2013-11-01 26.21 34,7006
2015 2015-05-27 25.09 22,4006
2016 2016-03-10 27.30 49,1006
2017 2017-04-12 25.83 32,6006
2018 2018-03-29 11.79 8546
2019 2019-04-26 24.82 24,8006
2020 2020-04-14 22.64 9,9006
?
  Peak Gage-Height Qualification Codes.
?
  Peak Streamflow Qualification Codes.